sensor_id;sensor_type;location;lat;lon;timestamp;P1;durP1;ratioP1;P2;durP2;ratioP2
79025;SDS011;71097;44.760;37.726;2023-10-31T00:00:17;26.25;;;7.45;;
79025;SDS011;71097;44.760;37.726;2023-10-31T00:01:19;32.15;;;7.18;;
79025;SDS011;71097;44.760;37.726;2023-10-31T00:02:21;27.70;;;8.18;;
79025;SDS011;71097;44.760;37.726;2023-10-31T00:03:24;31.40;;;7.65;;
79025;SDS011;71097;44.760;37.726;2023-10-31T00:04:25;23.52;;;8.07;;
79025;SDS011;71097;44.760;37.726;2023-10-31T00:05:27;30.83;;;7.60;;
79025;SDS011;71097;44.760;37.726;2023-10-31T00:06:28;21.30;;;7.05;;
79025;SDS011;71097;44.760;37.726;2023-10-31T00:07:30;31.75;;;9.48;;
79025;SDS011;71097;44.760;37.726;2023-10-31T00:08:32;23.80;;;7.90;;
79025;SDS011;71097;44.760;37.726;2023-10-31T00:09:33;23.42;;;7.57;;
79025;SDS011;71097;44.760;37.726;2023-10-31T00:10:35;28.00;;;8.38;;
79025;SDS011;71097;44.760;37.726;2023-10-31T00:11:37;18.20;;;7.80;;
79025;SDS011;71097;44.760;37.726;2023-10-31T00:12:38;23.63;;;7.35;;
79025;SDS011;71097;44.760;37.726;2023-10-31T00:13:41;33.25;;;8.27;;
79025;SDS011;71097;44.760;37.726;2023-10-31T00:14:43;25.25;;;7.78;;
79025;SDS011;71097;44.760;37.726;2023-10-31T00:15:47;28.40;;;7.22;;
79025;SDS011;71097;44.760;37.726;2023-10-31T00:16:49;23.17;;;7.45;;
79025;SDS011;71097;44.760;37.726;2023-10-31T00:17:51;23.40;;;7.60;;
79025;SDS011;71097;44.760;37.726;2023-10-31T00:18:53;28.67;;;9.38;;
79025;SDS011;71097;44.760;37.726;2023-10-31T00:19:55;23.83;;;7.63;;
79025;SDS011;71097;44.760;37.726;2023-10-31T00:20:57;22.35;;;6.93;;
79025;SDS011;71097;44.760;37.726;2023-10-31T00:21:59;18.48;;;7.35;;
79025;SDS011;71097;44.760;37.726;2023-10-31T00:23:05;26.60;;;8.38;;
79025;SDS011;71097;44.760;37.726;2023-10-31T00:24:06;28.38;;;8.65;;
79025;SDS011;71097;44.760;37.726;2023-10-31T00:25:08;19.08;;;7.57;;
79025;SDS011;71097;44.760;37.726;2023-10-31T00:26:09;22.80;;;8.40;;
79025;SDS011;71097;44.760;37.726;2023-10-31T00:27:11;23.85;;;7.70;;
79025;SDS011;71097;44.760;37.726;2023-10-31T00:28:13;20.65;;;7.57;;
79025;SDS011;71097;44.760;37.726;2023-10-31T00:29:15;17.48;;;7.43;;
79025;SDS011;71097;44.760;37.726;2023-10-31T00:30:16;21.75;;;8.27;;
79025;SDS011;71097;44.760;37.726;2023-10-31T00:31:18;20.52;;;8.80;;
79025;SDS011;71097;44.760;37.726;2023-10-31T00:32:19;25.30;;;7.32;;
79025;SDS011;71097;44.760;37.726;2023-10-31T00:33:22;28.60;;;9.30;;
79025;SDS011;71097;44.760;37.726;2023-10-31T00:34:23;24.83;;;7.50;;
79025;SDS011;71097;44.760;37.726;2023-10-31T00:35:25;27.73;;;8.32;;
79025;SDS011;71097;44.760;37.726;2023-10-31T00:36:26;25.80;;;7.88;;
79025;SDS011;71097;44.760;37.726;2023-10-31T00:37:27;24.58;;;8.52;;
79025;SDS011;71097;44.760;37.726;2023-10-31T00:38:29;25.85;;;8.00;;
79025;SDS011;71097;44.760;37.726;2023-10-31T00:39:30;34.80;;;9.15;;
79025;SDS011;71097;44.760;37.726;2023-10-31T00:40:32;28.20;;;9.55;;
79025;SDS011;71097;44.760;37.726;2023-10-31T00:41:34;33.22;;;8.55;;
79025;SDS011;71097;44.760;37.726;2023-10-31T00:42:38;45.25;;;11.05;;
79025;SDS011;71097;44.760;37.726;2023-10-31T00:43:42;39.90;;;9.63;;
79025;SDS011;71097;44.760;37.726;2023-10-31T00:44:43;40.80;;;10.50;;
79025;SDS011;71097;44.760;37.726;2023-10-31T00:45:45;33.28;;;9.15;;
79025;SDS011;71097;44.760;37.726;2023-10-31T00:46:46;35.42;;;9.50;;
79025;SDS011;71097;44.760;37.726;2023-10-31T00:47:48;46.15;;;8.57;;
79025;SDS011;71097;44.760;37.726;2023-10-31T00:48:49;44.00;;;9.43;;
79025;SDS011;71097;44.760;37.726;2023-10-31T00:49:50;27.88;;;9.02;;
79025;SDS011;71097;44.760;37.726;2023-10-31T00:50:53;39.10;;;10.57;;
79025;SDS011;71097;44.760;37.726;2023-10-31T00:51:55;32.47;;;8.82;;
79025;SDS011;71097;44.760;37.726;2023-10-31T00:52:57;41.92;;;10.90;;
79025;SDS011;71097;44.760;37.726;2023-10-31T00:53:58;35.35;;;8.25;;
79025;SDS011;71097;44.760;37.726;2023-10-31T00:55:00;36.55;;;9.90;;
79025;SDS011;71097;44.760;37.726;2023-10-31T00:56:01;36.15;;;8.60;;
79025;SDS011;71097;44.760;37.726;2023-10-31T00:57:03;33.97;;;9.10;;
79025;SDS011;71097;44.760;37.726;2023-10-31T00:58:05;40.42;;;9.80;;
79025;SDS011;71097;44.760;37.726;2023-10-31T00:59:06;49.22;;;9.68;;
79025;SDS011;71097;44.760;37.726;2023-10-31T01:00:11;32.88;;;11.50;;
79025;SDS011;71097;44.760;37.726;2023-10-31T01:01:13;33.08;;;8.82;;
79025;SDS011;71097;44.760;37.726;2023-10-31T01:02:16;45.95;;;9.10;;
79025;SDS011;71097;44.760;37.726;2023-10-31T01:03:17;23.15;;;7.55;;
79025;SDS011;71097;44.760;37.726;2023-10-31T01:04:19;28.58;;;8.27;;
79025;SDS011;71097;44.760;37.726;2023-10-31T01:05:21;28.13;;;8.68;;
79025;SDS011;71097;44.760;37.726;2023-10-31T01:06:23;37.63;;;8.07;;
79025;SDS011;71097;44.760;37.726;2023-10-31T01:07:25;45.38;;;8.77;;
79025;SDS011;71097;44.760;37.726;2023-10-31T01:08:27;45.70;;;12.02;;
79025;SDS011;71097;44.760;37.726;2023-10-31T01:09:28;41.05;;;9.93;;
79025;SDS011;71097;44.760;37.726;2023-10-31T01:10:30;33.20;;;8.60;;
79025;SDS011;71097;44.760;37.726;2023-10-31T01:11:31;39.28;;;8.63;;
79025;SDS011;71097;44.760;37.726;2023-10-31T01:12:32;40.55;;;9.52;;
79025;SDS011;71097;44.760;37.726;2023-10-31T01:13:34;61.70;;;12.50;;
79025;SDS011;71097;44.760;37.726;2023-10-31T01:14:35;72.78;;;11.98;;
79025;SDS011;71097;44.760;37.726;2023-10-31T01:15:37;75.25;;;12.43;;
79025;SDS011;71097;44.760;37.726;2023-10-31T01:16:39;79.45;;;13.23;;
79025;SDS011;71097;44.760;37.726;2023-10-31T01:17:41;84.93;;;13.02;;
79025;SDS011;71097;44.760;37.726;2023-10-31T01:18:42;75.38;;;12.43;;
79025;SDS011;71097;44.760;37.726;2023-10-31T01:19:44;75.20;;;13.05;;
79025;SDS011;71097;44.760;37.726;2023-10-31T01:20:45;65.00;;;11.68;;
79025;SDS011;71097;44.760;37.726;2023-10-31T01:21:46;74.15;;;12.57;;
79025;SDS011;71097;44.760;37.726;2023-10-31T01:22:48;82.72;;;13.40;;
79025;SDS011;71097;44.760;37.726;2023-10-31T01:23:49;84.85;;;11.38;;
79025;SDS011;71097;44.760;37.726;2023-10-31T01:24:50;70.85;;;13.32;;
79025;SDS011;71097;44.760;37.726;2023-10-31T01:25:52;88.32;;;12.57;;
79025;SDS011;71097;44.760;37.726;2023-10-31T01:26:53;84.28;;;12.68;;
79025;SDS011;71097;44.760;37.726;2023-10-31T01:27:55;96.47;;;14.43;;
79025;SDS011;71097;44.760;37.726;2023-10-31T01:28:56;73.57;;;12.60;;
79025;SDS011;71097;44.760;37.726;2023-10-31T01:29:58;92.45;;;16.45;;
79025;SDS011;71097;44.760;37.726;2023-10-31T01:31:00;100.70;;;15.52;;
79025;SDS011;71097;44.760;37.726;2023-10-31T01:32:01;94.07;;;13.50;;
79025;SDS011;71097;44.760;37.726;2023-10-31T01:33:03;81.80;;;13.60;;
79025;SDS011;71097;44.760;37.726;2023-10-31T01:34:04;78.82;;;13.70;;
79025;SDS011;71097;44.760;37.726;2023-10-31T01:35:06;80.72;;;12.88;;
79025;SDS011;71097;44.760;37.726;2023-10-31T01:36:07;106.43;;;14.98;;
79025;SDS011;71097;44.760;37.726;2023-10-31T01:37:10;85.38;;;13.32;;
79025;SDS011;71097;44.760;37.726;2023-10-31T01:38:12;83.65;;;12.20;;
79025;SDS011;71097;44.760;37.726;2023-10-31T01:39:13;112.45;;;14.38;;
79025;SDS011;71097;44.760;37.726;2023-10-31T01:40:14;103.68;;;13.40;;
79025;SDS011;71097;44.760;37.726;2023-10-31T01:41:16;86.03;;;11.15;;
79025;SDS011;71097;44.760;37.726;2023-10-31T01:42:17;62.75;;;10.63;;
79025;SDS011;71097;44.760;37.726;2023-10-31T01:43:31;71.25;;;10.43;;
79025;SDS011;71097;44.760;37.726;2023-10-31T01:44:37;64.93;;;10.70;;
79025;SDS011;71097;44.760;37.726;2023-10-31T01:45:38;87.57;;;10.45;;
79025;SDS011;71097;44.760;37.726;2023-10-31T01:46:40;73.97;;;11.05;;
79025;SDS011;71097;44.760;37.726;2023-10-31T01:47:42;71.20;;;10.70;;
79025;SDS011;71097;44.760;37.726;2023-10-31T01:48:45;69.55;;;10.77;;
79025;SDS011;71097;44.760;37.726;2023-10-31T01:49:47;75.28;;;10.13;;
79025;SDS011;71097;44.760;37.726;2023-10-31T01:50:49;75.60;;;11.15;;
79025;SDS011;71097;44.760;37.726;2023-10-31T01:51:52;61.20;;;10.20;;
79025;SDS011;71097;44.760;37.726;2023-10-31T01:52:53;58.25;;;8.82;;
79025;SDS011;71097;44.760;37.726;2023-10-31T01:53:55;62.85;;;11.35;;
79025;SDS011;71097;44.760;37.726;2023-10-31T01:54:57;65.40;;;8.98;;
79025;SDS011;71097;44.760;37.726;2023-10-31T01:55:59;52.70;;;7.95;;
79025;SDS011;71097;44.760;37.726;2023-10-31T01:57:02;56.85;;;10.10;;
79025;SDS011;71097;44.760;37.726;2023-10-31T01:59:07;42.08;;;8.25;;
79025;SDS011;71097;44.760;37.726;2023-10-31T02:00:10;47.15;;;10.88;;
79025;SDS011;71097;44.760;37.726;2023-10-31T02:01:15;37.00;;;7.40;;
79025;SDS011;71097;44.760;37.726;2023-10-31T02:02:17;40.78;;;9.90;;
79025;SDS011;71097;44.760;37.726;2023-10-31T02:03:21;44.33;;;8.82;;
79025;SDS011;71097;44.760;37.726;2023-10-31T02:04:23;39.47;;;8.52;;
79025;SDS011;71097;44.760;37.726;2023-10-31T02:05:25;38.28;;;8.65;;
79025;SDS011;71097;44.760;37.726;2023-10-31T02:06:28;49.28;;;9.45;;
79025;SDS011;71097;44.760;37.726;2023-10-31T02:07:31;46.42;;;8.88;;
79025;SDS011;71097;44.760;37.726;2023-10-31T02:08:32;61.83;;;11.82;;
79025;SDS011;71097;44.760;37.726;2023-10-31T02:09:34;36.50;;;7.95;;
79025;SDS011;71097;44.760;37.726;2023-10-31T02:10:35;45.92;;;10.00;;
79025;SDS011;71097;44.760;37.726;2023-10-31T02:11:37;40.58;;;9.90;;
79025;SDS011;71097;44.760;37.726;2023-10-31T02:12:38;38.97;;;9.45;;
79025;SDS011;71097;44.760;37.726;2023-10-31T02:13:41;36.30;;;9.63;;
79025;SDS011;71097;44.760;37.726;2023-10-31T02:14:42;33.38;;;10.52;;
79025;SDS011;71097;44.760;37.726;2023-10-31T02:15:44;32.85;;;9.60;;
79025;SDS011;71097;44.760;37.726;2023-10-31T02:16:46;38.22;;;9.38;;
79025;SDS011;71097;44.760;37.726;2023-10-31T02:17:48;38.22;;;9.15;;
79025;SDS011;71097;44.760;37.726;2023-10-31T02:18:49;27.23;;;8.23;;
79025;SDS011;71097;44.760;37.726;2023-10-31T02:19:50;47.80;;;9.50;;
79025;SDS011;71097;44.760;37.726;2023-10-31T02:20:52;56.22;;;10.90;;
79025;SDS011;71097;44.760;37.726;2023-10-31T02:21:53;61.75;;;11.68;;
79025;SDS011;71097;44.760;37.726;2023-10-31T02:22:54;60.05;;;10.02;;
79025;SDS011;71097;44.760;37.726;2023-10-31T02:23:57;64.82;;;11.00;;
79025;SDS011;71097;44.760;37.726;2023-10-31T02:25:15;55.85;;;11.23;;
79025;SDS011;71097;44.760;37.726;2023-10-31T02:26:17;40.92;;;9.98;;
79025;SDS011;71097;44.760;37.726;2023-10-31T02:27:20;47.35;;;9.77;;
79025;SDS011;71097;44.760;37.726;2023-10-31T02:28:21;26.05;;;8.10;;
79025;SDS011;71097;44.760;37.726;2023-10-31T02:29:23;17.75;;;7.35;;
79025;SDS011;71097;44.760;37.726;2023-10-31T02:30:24;22.20;;;8.95;;
79025;SDS011;71097;44.760;37.726;2023-10-31T02:31:27;27.52;;;8.02;;
79025;SDS011;71097;44.760;37.726;2023-10-31T02:32:28;27.27;;;9.27;;
79025;SDS011;71097;44.760;37.726;2023-10-31T02:33:30;23.60;;;8.38;;
79025;SDS011;71097;44.760;37.726;2023-10-31T02:34:31;31.13;;;7.28;;
79025;SDS011;71097;44.760;37.726;2023-10-31T02:35:34;28.05;;;8.55;;
79025;SDS011;71097;44.760;37.726;2023-10-31T02:36:35;30.80;;;9.98;;
79025;SDS011;71097;44.760;37.726;2023-10-31T02:37:36;25.20;;;8.57;;
79025;SDS011;71097;44.760;37.726;2023-10-31T02:38:38;33.05;;;9.73;;
79025;SDS011;71097;44.760;37.726;2023-10-31T02:39:40;23.92;;;7.90;;
79025;SDS011;71097;44.760;37.726;2023-10-31T02:40:41;29.55;;;8.38;;
79025;SDS011;71097;44.760;37.726;2023-10-31T02:41:43;27.42;;;8.40;;
79025;SDS011;71097;44.760;37.726;2023-10-31T02:42:44;32.35;;;8.85;;
79025;SDS011;71097;44.760;37.726;2023-10-31T02:43:46;26.63;;;9.43;;
79025;SDS011;71097;44.760;37.726;2023-10-31T02:44:48;27.38;;;8.20;;
79025;SDS011;71097;44.760;37.726;2023-10-31T02:45:50;22.83;;;7.80;;
79025;SDS011;71097;44.760;37.726;2023-10-31T02:46:51;42.97;;;8.38;;
79025;SDS011;71097;44.760;37.726;2023-10-31T02:47:52;27.85;;;7.00;;
79025;SDS011;71097;44.760;37.726;2023-10-31T02:48:54;34.22;;;9.32;;
79025;SDS011;71097;44.760;37.726;2023-10-31T02:49:56;24.10;;;7.65;;
79025;SDS011;71097;44.760;37.726;2023-10-31T02:50:57;26.08;;;8.00;;
79025;SDS011;71097;44.760;37.726;2023-10-31T02:51:58;30.38;;;8.23;;
79025;SDS011;71097;44.760;37.726;2023-10-31T02:53:00;20.15;;;7.63;;
79025;SDS011;71097;44.760;37.726;2023-10-31T02:54:01;32.25;;;8.38;;
79025;SDS011;71097;44.760;37.726;2023-10-31T02:55:03;27.83;;;7.65;;
79025;SDS011;71097;44.760;37.726;2023-10-31T02:56:04;34.03;;;9.32;;
79025;SDS011;71097;44.760;37.726;2023-10-31T02:57:07;25.60;;;7.20;;
79025;SDS011;71097;44.760;37.726;2023-10-31T02:58:08;36.53;;;9.48;;
79025;SDS011;71097;44.760;37.726;2023-10-31T02:59:10;26.55;;;7.10;;
79025;SDS011;71097;44.760;37.726;2023-10-31T03:00:12;30.08;;;7.35;;
79025;SDS011;71097;44.760;37.726;2023-10-31T03:01:14;42.33;;;9.52;;
79025;SDS011;71097;44.760;37.726;2023-10-31T03:02:17;35.13;;;8.73;;
79025;SDS011;71097;44.760;37.726;2023-10-31T03:03:19;43.83;;;9.43;;
79025;SDS011;71097;44.760;37.726;2023-10-31T03:04:20;45.92;;;10.93;;
79025;SDS011;71097;44.760;37.726;2023-10-31T03:05:22;34.47;;;11.05;;
79025;SDS011;71097;44.760;37.726;2023-10-31T03:06:24;41.97;;;12.73;;
79025;SDS011;71097;44.760;37.726;2023-10-31T03:07:25;50.67;;;12.63;;
79025;SDS011;71097;44.760;37.726;2023-10-31T03:08:27;55.83;;;15.20;;
79025;SDS011;71097;44.760;37.726;2023-10-31T03:09:28;50.15;;;14.20;;
79025;SDS011;71097;44.760;37.726;2023-10-31T03:10:30;51.60;;;15.65;;
79025;SDS011;71097;44.760;37.726;2023-10-31T03:11:31;54.95;;;14.85;;
79025;SDS011;71097;44.760;37.726;2023-10-31T03:12:33;47.95;;;16.17;;
79025;SDS011;71097;44.760;37.726;2023-10-31T03:13:34;51.40;;;15.00;;
79025;SDS011;71097;44.760;37.726;2023-10-31T03:14:36;50.92;;;13.35;;
79025;SDS011;71097;44.760;37.726;2023-10-31T03:15:37;48.38;;;13.10;;
79025;SDS011;71097;44.760;37.726;2023-10-31T03:16:39;44.75;;;12.18;;
79025;SDS011;71097;44.760;37.726;2023-10-31T03:17:41;57.75;;;13.32;;
79025;SDS011;71097;44.760;37.726;2023-10-31T03:18:42;55.42;;;13.48;;
79025;SDS011;71097;44.760;37.726;2023-10-31T03:19:44;56.08;;;14.45;;
79025;SDS011;71097;44.760;37.726;2023-10-31T03:20:45;63.10;;;12.68;;
79025;SDS011;71097;44.760;37.726;2023-10-31T03:21:47;76.85;;;14.52;;
79025;SDS011;71097;44.760;37.726;2023-10-31T03:22:50;67.72;;;11.75;;
79025;SDS011;71097;44.760;37.726;2023-10-31T03:23:52;55.15;;;11.70;;
79025;SDS011;71097;44.760;37.726;2023-10-31T03:24:56;64.50;;;10.82;;
79025;SDS011;71097;44.760;37.726;2023-10-31T03:25:57;61.58;;;10.70;;
79025;SDS011;71097;44.760;37.726;2023-10-31T03:26:59;59.35;;;10.95;;
79025;SDS011;71097;44.760;37.726;2023-10-31T03:28:00;67.43;;;10.80;;
79025;SDS011;71097;44.760;37.726;2023-10-31T03:29:02;59.15;;;10.77;;
79025;SDS011;71097;44.760;37.726;2023-10-31T03:30:04;65.60;;;11.70;;
79025;SDS011;71097;44.760;37.726;2023-10-31T03:31:06;47.30;;;10.45;;
79025;SDS011;71097;44.760;37.726;2023-10-31T03:32:07;54.45;;;10.60;;
79025;SDS011;71097;44.760;37.726;2023-10-31T03:33:09;49.35;;;9.77;;
79025;SDS011;71097;44.760;37.726;2023-10-31T03:34:11;46.53;;;9.93;;
79025;SDS011;71097;44.760;37.726;2023-10-31T03:35:12;48.92;;;9.98;;
79025;SDS011;71097;44.760;37.726;2023-10-31T03:36:13;58.03;;;10.52;;
79025;SDS011;71097;44.760;37.726;2023-10-31T03:37:15;56.97;;;10.30;;
79025;SDS011;71097;44.760;37.726;2023-10-31T03:38:16;55.95;;;10.23;;
79025;SDS011;71097;44.760;37.726;2023-10-31T03:39:17;55.38;;;10.27;;
79025;SDS011;71097;44.760;37.726;2023-10-31T03:40:19;52.65;;;10.57;;
79025;SDS011;71097;44.760;37.726;2023-10-31T03:41:20;73.07;;;10.52;;
79025;SDS011;71097;44.760;37.726;2023-10-31T03:42:24;49.50;;;9.60;;
79025;SDS011;71097;44.760;37.726;2023-10-31T03:43:25;56.55;;;9.43;;
79025;SDS011;71097;44.760;37.726;2023-10-31T03:44:27;63.22;;;11.57;;
79025;SDS011;71097;44.760;37.726;2023-10-31T03:45:28;68.00;;;11.38;;
79025;SDS011;71097;44.760;37.726;2023-10-31T03:46:30;75.03;;;12.52;;
79025;SDS011;71097;44.760;37.726;2023-10-31T03:47:31;70.32;;;12.25;;
79025;SDS011;71097;44.760;37.726;2023-10-31T03:48:33;47.20;;;10.15;;
79025;SDS011;71097;44.760;37.726;2023-10-31T03:49:37;69.35;;;11.10;;
79025;SDS011;71097;44.760;37.726;2023-10-31T03:50:39;61.75;;;12.00;;
79025;SDS011;71097;44.760;37.726;2023-10-31T03:51:40;68.70;;;11.32;;
79025;SDS011;71097;44.760;37.726;2023-10-31T03:52:42;55.80;;;11.10;;
79025;SDS011;71097;44.760;37.726;2023-10-31T03:53:43;71.07;;;11.80;;
79025;SDS011;71097;44.760;37.726;2023-10-31T03:54:45;60.85;;;13.25;;
79025;SDS011;71097;44.760;37.726;2023-10-31T03:55:46;56.53;;;11.68;;
79025;SDS011;71097;44.760;37.726;2023-10-31T03:56:47;44.80;;;11.05;;
79025;SDS011;71097;44.760;37.726;2023-10-31T03:57:51;62.13;;;11.50;;
79025;SDS011;71097;44.760;37.726;2023-10-31T03:58:52;59.53;;;13.32;;
79025;SDS011;71097;44.760;37.726;2023-10-31T03:59:54;64.78;;;13.15;;
79025;SDS011;71097;44.760;37.726;2023-10-31T04:00:56;56.75;;;12.50;;
79025;SDS011;71097;44.760;37.726;2023-10-31T04:01:58;55.80;;;11.43;;
79025;SDS011;71097;44.760;37.726;2023-10-31T04:02:59;55.40;;;11.65;;
79025;SDS011;71097;44.760;37.726;2023-10-31T04:04:01;53.83;;;11.52;;
79025;SDS011;71097;44.760;37.726;2023-10-31T04:05:03;53.95;;;15.10;;
79025;SDS011;71097;44.760;37.726;2023-10-31T04:06:04;51.33;;;14.63;;
79025;SDS011;71097;44.760;37.726;2023-10-31T04:07:08;52.15;;;12.45;;
79025;SDS011;71097;44.760;37.726;2023-10-31T04:08:11;52.97;;;10.27;;
79025;SDS011;71097;44.760;37.726;2023-10-31T04:09:12;42.78;;;12.25;;
79025;SDS011;71097;44.760;37.726;2023-10-31T04:10:14;45.08;;;10.32;;
79025;SDS011;71097;44.760;37.726;2023-10-31T04:11:17;36.58;;;9.70;;
79025;SDS011;71097;44.760;37.726;2023-10-31T04:12:18;37.22;;;10.25;;
79025;SDS011;71097;44.760;37.726;2023-10-31T04:13:19;42.60;;;9.65;;
79025;SDS011;71097;44.760;37.726;2023-10-31T04:14:21;41.75;;;9.85;;
79025;SDS011;71097;44.760;37.726;2023-10-31T04:15:22;29.08;;;9.02;;
79025;SDS011;71097;44.760;37.726;2023-10-31T04:16:23;27.23;;;9.02;;
79025;SDS011;71097;44.760;37.726;2023-10-31T04:17:25;35.08;;;10.10;;
79025;SDS011;71097;44.760;37.726;2023-10-31T04:18:26;28.67;;;8.38;;
79025;SDS011;71097;44.760;37.726;2023-10-31T04:19:28;32.90;;;9.40;;
79025;SDS011;71097;44.760;37.726;2023-10-31T04:20:29;32.88;;;8.88;;
79025;SDS011;71097;44.760;37.726;2023-10-31T04:21:30;30.33;;;10.18;;
79025;SDS011;71097;44.760;37.726;2023-10-31T04:22:32;28.50;;;10.73;;
79025;SDS011;71097;44.760;37.726;2023-10-31T04:23:33;31.90;;;9.95;;
79025;SDS011;71097;44.760;37.726;2023-10-31T04:24:34;30.48;;;9.48;;
79025;SDS011;71097;44.760;37.726;2023-10-31T04:25:35;27.00;;;8.45;;
79025;SDS011;71097;44.760;37.726;2023-10-31T04:26:37;30.67;;;9.18;;
79025;SDS011;71097;44.760;37.726;2023-10-31T04:27:39;34.58;;;9.02;;
79025;SDS011;71097;44.760;37.726;2023-10-31T04:28:41;27.60;;;8.43;;
79025;SDS011;71097;44.760;37.726;2023-10-31T04:29:42;26.33;;;7.43;;
79025;SDS011;71097;44.760;37.726;2023-10-31T04:30:44;21.00;;;7.18;;
79025;SDS011;71097;44.760;37.726;2023-10-31T04:31:45;17.83;;;6.07;;
79025;SDS011;71097;44.760;37.726;2023-10-31T04:32:46;21.52;;;6.28;;
79025;SDS011;71097;44.760;37.726;2023-10-31T04:33:48;23.77;;;6.10;;
79025;SDS011;71097;44.760;37.726;2023-10-31T04:34:49;17.40;;;5.45;;
79025;SDS011;71097;44.760;37.726;2023-10-31T04:35:50;23.73;;;6.40;;
79025;SDS011;71097;44.760;37.726;2023-10-31T04:36:51;28.15;;;6.15;;
79025;SDS011;71097;44.760;37.726;2023-10-31T04:37:53;23.73;;;6.55;;
79025;SDS011;71097;44.760;37.726;2023-10-31T04:38:54;19.92;;;6.43;;
79025;SDS011;71097;44.760;37.726;2023-10-31T04:39:55;16.30;;;5.05;;
79025;SDS011;71097;44.760;37.726;2023-10-31T04:40:57;12.90;;;4.95;;
79025;SDS011;71097;44.760;37.726;2023-10-31T04:41:58;14.07;;;4.18;;
79025;SDS011;71097;44.760;37.726;2023-10-31T04:42:59;16.58;;;4.70;;
79025;SDS011;71097;44.760;37.726;2023-10-31T04:44:01;19.08;;;5.13;;
79025;SDS011;71097;44.760;37.726;2023-10-31T04:45:03;13.25;;;5.25;;
79025;SDS011;71097;44.760;37.726;2023-10-31T04:46:06;16.60;;;4.75;;
79025;SDS011;71097;44.760;37.726;2023-10-31T04:47:07;19.25;;;4.60;;
79025;SDS011;71097;44.760;37.726;2023-10-31T04:48:09;15.77;;;4.72;;
79025;SDS011;71097;44.760;37.726;2023-10-31T04:49:10;17.48;;;5.30;;
79025;SDS011;71097;44.760;37.726;2023-10-31T04:50:11;15.27;;;4.45;;
79025;SDS011;71097;44.760;37.726;2023-10-31T04:51:15;14.85;;;5.03;;
79025;SDS011;71097;44.760;37.726;2023-10-31T04:52:17;20.20;;;5.50;;
79025;SDS011;71097;44.760;37.726;2023-10-31T04:53:18;19.38;;;5.63;;
79025;SDS011;71097;44.760;37.726;2023-10-31T04:54:19;19.88;;;6.38;;
79025;SDS011;71097;44.760;37.726;2023-10-31T04:55:21;17.55;;;5.25;;
79025;SDS011;71097;44.760;37.726;2023-10-31T04:56:22;20.27;;;6.53;;
79025;SDS011;71097;44.760;37.726;2023-10-31T04:57:23;14.60;;;4.80;;
79025;SDS011;71097;44.760;37.726;2023-10-31T04:58:25;18.77;;;5.93;;
79025;SDS011;71097;44.760;37.726;2023-10-31T04:59:26;19.05;;;5.82;;
79025;SDS011;71097;44.760;37.726;2023-10-31T05:00:27;28.02;;;6.72;;
79025;SDS011;71097;44.760;37.726;2023-10-31T05:01:29;23.23;;;6.40;;
79025;SDS011;71097;44.760;37.726;2023-10-31T05:02:30;20.70;;;6.22;;
79025;SDS011;71097;44.760;37.726;2023-10-31T05:03:31;17.92;;;5.93;;
79025;SDS011;71097;44.760;37.726;2023-10-31T05:04:32;27.20;;;6.88;;
79025;SDS011;71097;44.760;37.726;2023-10-31T05:05:34;18.40;;;6.70;;
79025;SDS011;71097;44.760;37.726;2023-10-31T05:06:35;19.95;;;6.35;;
79025;SDS011;71097;44.760;37.726;2023-10-31T05:07:37;21.42;;;7.18;;
79025;SDS011;71097;44.760;37.726;2023-10-31T05:08:38;22.83;;;6.05;;
79025;SDS011;71097;44.760;37.726;2023-10-31T05:09:40;21.52;;;6.03;;
79025;SDS011;71097;44.760;37.726;2023-10-31T05:10:42;30.77;;;6.35;;
79025;SDS011;71097;44.760;37.726;2023-10-31T05:11:43;22.23;;;6.15;;
79025;SDS011;71097;44.760;37.726;2023-10-31T05:12:45;26.35;;;7.20;;
79025;SDS011;71097;44.760;37.726;2023-10-31T05:13:46;24.75;;;6.55;;
79025;SDS011;71097;44.760;37.726;2023-10-31T05:14:47;25.17;;;6.78;;
79025;SDS011;71097;44.760;37.726;2023-10-31T05:15:49;27.85;;;6.47;;
79025;SDS011;71097;44.760;37.726;2023-10-31T05:16:50;24.08;;;7.05;;
79025;SDS011;71097;44.760;37.726;2023-10-31T05:17:52;24.98;;;6.93;;
79025;SDS011;71097;44.760;37.726;2023-10-31T05:18:53;24.05;;;6.45;;
79025;SDS011;71097;44.760;37.726;2023-10-31T05:19:54;29.88;;;7.43;;
79025;SDS011;71097;44.760;37.726;2023-10-31T05:20:56;29.23;;;6.72;;
79025;SDS011;71097;44.760;37.726;2023-10-31T05:21:57;22.73;;;6.35;;
79025;SDS011;71097;44.760;37.726;2023-10-31T05:22:58;22.00;;;7.05;;
79025;SDS011;71097;44.760;37.726;2023-10-31T05:24:00;23.27;;;6.20;;
79025;SDS011;71097;44.760;37.726;2023-10-31T05:25:02;28.48;;;7.47;;
79025;SDS011;71097;44.760;37.726;2023-10-31T05:26:06;26.13;;;6.38;;
79025;SDS011;71097;44.760;37.726;2023-10-31T05:27:07;56.72;;;9.10;;
79025;SDS011;71097;44.760;37.726;2023-10-31T05:28:10;29.35;;;6.82;;
79025;SDS011;71097;44.760;37.726;2023-10-31T05:29:11;23.92;;;6.13;;
79025;SDS011;71097;44.760;37.726;2023-10-31T05:30:13;22.27;;;6.05;;
79025;SDS011;71097;44.760;37.726;2023-10-31T05:31:15;19.73;;;6.15;;
79025;SDS011;71097;44.760;37.726;2023-10-31T05:32:16;19.02;;;5.85;;
79025;SDS011;71097;44.760;37.726;2023-10-31T05:33:18;23.88;;;5.47;;
79025;SDS011;71097;44.760;37.726;2023-10-31T05:34:19;18.70;;;6.07;;
79025;SDS011;71097;44.760;37.726;2023-10-31T05:35:20;24.50;;;5.38;;
79025;SDS011;71097;44.760;37.726;2023-10-31T05:36:23;22.13;;;5.55;;
79025;SDS011;71097;44.760;37.726;2023-10-31T05:37:25;17.88;;;5.88;;
79025;SDS011;71097;44.760;37.726;2023-10-31T05:38:26;13.57;;;5.47;;
79025;SDS011;71097;44.760;37.726;2023-10-31T05:39:29;17.00;;;6.07;;
79025;SDS011;71097;44.760;37.726;2023-10-31T05:40:30;18.60;;;5.57;;
79025;SDS011;71097;44.760;37.726;2023-10-31T05:41:36;20.08;;;5.13;;
79025;SDS011;71097;44.760;37.726;2023-10-31T05:42:37;15.48;;;5.50;;
79025;SDS011;71097;44.760;37.726;2023-10-31T05:43:38;25.27;;;6.53;;
79025;SDS011;71097;44.760;37.726;2023-10-31T05:44:40;21.70;;;5.88;;
79025;SDS011;71097;44.760;37.726;2023-10-31T05:45:41;17.17;;;5.72;;
79025;SDS011;71097;44.760;37.726;2023-10-31T05:46:42;19.55;;;5.63;;
79025;SDS011;71097;44.760;37.726;2023-10-31T05:47:44;27.65;;;6.63;;
79025;SDS011;71097;44.760;37.726;2023-10-31T05:48:45;21.48;;;5.22;;
79025;SDS011;71097;44.760;37.726;2023-10-31T05:49:47;25.58;;;5.68;;
79025;SDS011;71097;44.760;37.726;2023-10-31T05:50:49;19.42;;;5.38;;
79025;SDS011;71097;44.760;37.726;2023-10-31T05:51:51;16.67;;;5.68;;
79025;SDS011;71097;44.760;37.726;2023-10-31T05:52:52;24.05;;;6.13;;
79025;SDS011;71097;44.760;37.726;2023-10-31T05:53:54;20.02;;;6.47;;
79025;SDS011;71097;44.760;37.726;2023-10-31T05:54:55;20.58;;;6.65;;
79025;SDS011;71097;44.760;37.726;2023-10-31T05:55:57;23.70;;;6.65;;
79025;SDS011;71097;44.760;37.726;2023-10-31T05:56:58;21.15;;;7.18;;
79025;SDS011;71097;44.760;37.726;2023-10-31T05:57:59;25.33;;;7.10;;
79025;SDS011;71097;44.760;37.726;2023-10-31T05:59:00;26.10;;;7.55;;
79025;SDS011;71097;44.760;37.726;2023-10-31T06:00:02;34.55;;;8.07;;